Time;durP1;ratioP1;P1;durP2;ratioP2;P2;SDS_P1;SDS_P2;PMS_P1;PMS_P2;Temp;Humidity;BMP_temperature;BMP_pressure;BME280_temperature;BME280_humidity;BME280_pressure;Samples;Min_cycle;Max_cycle;Signal;HPM_P1;HPM_P2
2022/10/09 00:01:28;;;;;;;1.17;0.60;;;14.70;98.70;;;;;;5007525;28;20630;-73
2022/10/09 00:03:57;;;;;;;0.60;0.50;;;14.70;98.70;;;;;;5011653;28;20202;-73
2022/10/09 00:06:28;;;;;;;0.67;0.50;;;14.80;98.60;;;;;;5008786;28;20191;-73
2022/10/09 00:08:56;;;;;;;0.50;0.50;;;14.80;98.60;;;;;;5009135;28;20214;-73
2022/10/09 00:11:25;;;;;;;0.40;0.40;;;14.80;98.40;;;;;;5008497;28;20197;-73
2022/10/09 00:13:53;;;;;;;0.77;0.63;;;14.80;98.30;;;;;;5010605;28;20203;-73
2022/10/09 00:16:23;;;;;;;0.67;0.60;;;14.80;98.20;;;;;;5009331;28;20211;-73
2022/10/09 00:18:51;;;;;;;0.63;0.60;;;14.80;98.20;;;;;;5009355;28;20675;-73
2022/10/09 00:21:21;;;;;;;2.17;0.63;;;14.80;98.20;;;;;;5010145;28;20198;-73
2022/10/09 00:23:49;;;;;;;0.90;0.60;;;14.80;98.30;;;;;;5010471;28;20199;-73
2022/10/09 00:26:16;;;;;;;0.60;0.50;;;14.80;98.20;;;;;;5010430;28;20198;-73
2022/10/09 00:28:43;;;;;;;0.50;0.50;;;14.80;98.30;;;;;;5008586;28;20691;-73
2022/10/09 00:31:12;;;;;;;0.97;0.50;;;14.80;98.30;;;;;;5010258;28;20202;-73
2022/10/09 00:33:41;;;;;;;0.40;0.40;;;14.80;98.30;;;;;;5010353;28;20195;-73
2022/10/09 00:36:10;;;;;;;0.83;0.50;;;14.80;98.40;;;;;;5007681;28;20210;-74
2022/10/09 00:38:37;;;;;;;0.63;0.60;;;14.80;98.40;;;;;;5009897;28;20202;-73
2022/10/09 00:41:05;;;;;;;0.43;0.43;;;14.80;98.80;;;;;;5007952;28;20659;-73
2022/10/09 00:43:45;;;;;;;0.57;0.50;;;14.80;98.50;;;;;;5008352;28;20211;-73
2022/10/09 00:46:28;;;;;;;0.50;0.50;;;14.80;98.60;;;;;;5009631;28;20202;-74
2022/10/09 00:49:19;;;;;;;0.67;0.60;;;14.80;98.60;;;;;;5007889;28;20365;-73
2022/10/09 00:51:48;;;;;;;0.63;0.50;;;14.70;98.70;;;;;;5007222;28;20269;-73
2022/10/09 00:54:18;;;;;;;0.87;0.60;;;14.70;98.80;;;;;;5010366;28;20689;-73
2022/10/09 00:56:45;;;;;;;0.60;0.60;;;14.70;98.90;;;;;;5008273;28;20222;-73
2022/10/09 00:59:13;;;;;;;0.87;0.50;;;14.60;98.90;;;;;;5007731;28;20203;-73
2022/10/09 01:01:41;;;;;;;0.77;0.77;;;14.60;98.90;;;;;;5008094;28;20678;-74
2022/10/09 01:04:10;;;;;;;0.60;0.60;;;14.60;99.00;;;;;;5010378;28;20200;-73
2022/10/09 01:06:54;;;;;;;0.60;0.50;;;14.60;99.10;;;;;;5007547;28;20200;-74
2022/10/09 01:09:25;;;;;;;1.63;0.70;;;14.60;99.10;;;;;;5008385;28;20219;-74
2022/10/09 01:11:59;;;;;;;0.60;0.60;;;14.60;99.50;;;;;;5008332;28;20205;-71
2022/10/09 01:14:29;;;;;;;0.60;0.60;;;14.50;99.10;;;;;;5008285;28;20203;-71
2022/10/09 01:17:04;;;;;;;0.70;0.53;;;14.50;99.10;;;;;;5008149;28;20218;-71
2022/10/09 01:19:56;;;;;;;0.80;0.80;;;14.50;99.10;;;;;;5008942;28;20194;-72
2022/10/09 01:22:38;;;;;;;1.20;0.70;;;14.50;99.10;;;;;;5007076;28;20658;-73
2022/10/09 01:25:07;;;;;;;0.50;0.50;;;14.50;99.10;;;;;;5007139;28;20209;-73
2022/10/09 01:27:37;;;;;;;0.87;0.73;;;14.40;99.10;;;;;;5008331;28;20195;-73
2022/10/09 01:30:08;;;;;;;0.50;0.50;;;14.40;99.10;;;;;;5008648;28;20249;-73
2022/10/09 01:32:39;;;;;;;1.03;0.90;;;14.40;99.20;;;;;;5009664;28;20199;-73
2022/10/09 01:35:08;;;;;;;0.70;0.70;;;14.40;99.20;;;;;;5007907;28;20183;-73
2022/10/09 01:37:37;;;;;;;0.77;0.77;;;14.40;99.20;;;;;;5009475;28;20210;-73
2022/10/09 01:40:05;;;;;;;1.33;0.70;;;14.40;99.20;;;;;;5008432;28;20210;-73
2022/10/09 01:42:33;;;;;;;0.60;0.50;;;14.40;99.20;;;;;;5007489;28;20273;-72
2022/10/09 01:45:01;;;;;;;0.50;0.50;;;14.40;99.20;;;;;;5007407;28;20201;-73
2022/10/09 01:47:29;;;;;;;0.50;0.50;;;14.40;99.20;;;;;;5010002;28;20198;-72
2022/10/09 01:50:02;;;;;;;0.93;0.60;;;14.40;99.20;;;;;;5008161;28;20199;-72
2022/10/09 01:52:38;;;;;;;2.90;0.73;;;14.30;99.20;;;;;;5005966;28;20223;-72
2022/10/09 01:55:18;;;;;;;0.63;0.60;;;14.30;99.30;;;;;;5007577;28;20197;-72
2022/10/09 01:57:51;;;;;;;0.80;0.80;;;14.30;99.30;;;;;;5009308;28;20213;-72
2022/10/09 02:00:21;;;;;;;0.90;0.83;;;14.30;99.40;;;;;;5007008;28;20210;-73
2022/10/09 02:02:49;;;;;;;3.63;0.93;;;14.20;99.40;;;;;;5005837;28;20194;-73
2022/10/09 02:05:22;;;;;;;1.07;0.77;;;14.20;99.50;;;;;;5006446;28;20228;-72
2022/10/09 02:07:49;;;;;;;3.23;0.90;;;14.20;99.60;;;;;;5006627;28;20536;-73
2022/10/09 02:10:18;;;;;;;0.60;0.60;;;14.20;99.70;;;;;;5007989;28;20563;-72
2022/10/09 02:12:50;;;;;;;0.73;0.60;;;14.20;99.70;;;;;;5006963;28;20214;-72
2022/10/09 02:15:20;;;;;;;2.03;0.60;;;14.20;99.70;;;;;;5007552;28;20285;-72
2022/10/09 02:17:51;;;;;;;0.83;0.80;;;14.20;99.70;;;;;;5008968;28;20206;-72
2022/10/09 02:20:24;;;;;;;0.60;0.60;;;14.20;99.80;;;;;;5007416;28;20205;-73
2022/10/09 02:22:53;;;;;;;0.67;0.60;;;14.20;99.80;;;;;;5007420;28;20212;-72
2022/10/09 02:25:21;;;;;;;1.80;0.80;;;14.10;99.80;;;;;;5011408;28;20202;-72
2022/10/09 02:27:48;;;;;;;0.50;0.50;;;14.10;99.90;;;;;;5011115;28;20209;-72
2022/10/09 02:30:16;;;;;;;0.77;0.77;;;14.10;99.90;;;;;;5011698;28;20208;-72
2022/10/09 02:32:44;;;;;;;1.93;0.80;;;14.10;99.90;;;;;;5010675;28;20206;-72
2022/10/09 02:35:12;;;;;;;0.47;0.47;;;14.10;99.90;;;;;;5011956;28;20194;-72
2022/10/09 02:37:39;;;;;;;1.87;0.73;;;14.10;99.90;;;;;;5026763;28;20282;-72
2022/10/09 02:40:08;;;;;;;1.87;0.60;;;14.10;99.90;;;;;;5010154;28;20300;-72
2022/10/09 02:42:35;;;;;;;1.43;0.80;;;14.00;99.90;;;;;;5010944;28;20194;-72
2022/10/09 02:45:02;;;;;;;0.80;0.67;;;14.00;99.90;;;;;;5009418;28;20202;-72
2022/10/09 02:47:29;;;;;;;1.23;0.67;;;14.00;99.90;;;;;;5012664;28;20202;-71
2022/10/09 02:49:58;;;;;;;1.47;0.83;;;14.00;99.90;;;;;;5011265;28;20231;-72
2022/10/09 02:52:25;;;;;;;0.60;0.60;;;14.10;99.90;;;;;;5012357;28;20271;-73
2022/10/09 02:54:52;;;;;;;1.20;0.80;;;14.10;99.90;;;;;;5012375;28;20232;-72
2022/10/09 02:57:19;;;;;;;1.60;0.80;;;14.00;99.90;;;;;;5011350;28;20217;-72
2022/10/09 02:59:46;;;;;;;1.03;0.73;;;14.00;99.90;;;;;;5010412;28;20229;-72
2022/10/09 03:02:13;;;;;;;0.80;0.60;;;14.00;99.90;;;;;;5011483;28;20201;-72
2022/10/09 03:04:41;;;;;;;0.80;0.80;;;14.00;99.90;;;;;;5012085;28;20248;-72
2022/10/09 03:07:09;;;;;;;0.60;0.60;;;14.00;99.90;;;;;;5009842;28;20200;-73
2022/10/09 03:09:38;;;;;;;1.90;0.83;;;14.00;99.90;;;;;;5010591;28;21050;-72
2022/10/09 03:12:05;;;;;;;1.63;0.90;;;14.00;99.90;;;;;;5010628;28;20291;-72
2022/10/09 03:14:33;;;;;;;1.43;0.60;;;14.00;99.90;;;;;;5010023;28;20221;-73
2022/10/09 03:17:01;;;;;;;2.00;0.60;;;14.00;99.90;;;;;;5025484;28;20249;-72
2022/10/09 03:19:28;;;;;;;2.33;0.67;;;14.00;99.90;;;;;;5011741;28;20201;-72
2022/10/09 03:21:55;;;;;;;1.60;0.70;;;14.00;99.90;;;;;;5007591;28;20355;-72
2022/10/09 03:24:23;;;;;;;0.60;0.60;;;14.00;99.90;;;;;;5010501;28;20200;-72
2022/10/09 03:26:50;;;;;;;0.63;0.50;;;14.00;99.90;;;;;;5008752;28;20186;-73
2022/10/09 03:29:18;;;;;;;1.07;0.63;;;14.00;99.90;;;;;;5011533;28;20206;-72
2022/10/09 03:31:45;;;;;;;0.70;0.67;;;14.00;99.90;;;;;;5011287;28;20597;-73
2022/10/09 03:34:12;;;;;;;1.13;0.80;;;14.00;99.90;;;;;;5012023;28;20190;-73
2022/10/09 03:36:41;;;;;;;0.90;0.77;;;13.90;99.90;;;;;;5010346;28;20237;-73
2022/10/09 03:39:08;;;;;;;2.20;1.00;;;13.90;99.90;;;;;;5007643;28;20194;-73
2022/10/09 03:41:36;;;;;;;1.03;0.80;;;13.90;99.90;;;;;;5007278;28;20204;-72
2022/10/09 03:44:04;;;;;;;1.33;0.97;;;13.90;99.90;;;;;;5011422;28;20206;-72
2022/10/09 03:46:31;;;;;;;1.60;1.00;;;13.80;99.90;;;;;;5008940;28;20205;-72
2022/10/09 03:48:58;;;;;;;1.77;0.70;;;13.80;99.90;;;;;;5012188;28;20197;-72
2022/10/09 03:51:25;;;;;;;2.10;1.00;;;13.80;99.90;;;;;;5010723;28;20602;-73
2022/10/09 03:53:52;;;;;;;1.43;0.77;;;13.80;99.90;;;;;;5009616;28;20398;-72
2022/10/09 03:56:19;;;;;;;1.10;0.97;;;13.80;99.90;;;;;;5010434;28;20554;-72
2022/10/09 03:58:48;;;;;;;2.20;1.03;;;13.80;99.90;;;;;;5009864;28;20285;-71
2022/10/09 04:01:15;;;;;;;1.70;1.00;;;13.80;99.90;;;;;;5009623;28;20194;-72
2022/10/09 04:03:42;;;;;;;1.23;0.73;;;13.70;99.90;;;;;;5009783;28;20219;-73
2022/10/09 04:06:09;;;;;;;1.13;0.80;;;13.70;99.90;;;;;;5009769;28;20230;-72
2022/10/09 04:08:37;;;;;;;1.53;0.70;;;13.70;99.90;;;;;;5009608;28;20212;-72
2022/10/09 04:11:04;;;;;;;1.47;0.80;;;13.70;99.90;;;;;;5005963;28;20267;-72
2022/10/09 04:13:31;;;;;;;0.73;0.73;;;13.70;99.90;;;;;;5009516;28;20221;-73
2022/10/09 04:16:00;;;;;;;1.13;0.83;;;13.60;99.90;;;;;;5010657;28;20658;-73
2022/10/09 04:18:27;;;;;;;0.80;0.80;;;13.60;99.90;;;;;;5009386;28;20281;-73
2022/10/09 04:20:56;;;;;;;1.00;0.70;;;13.60;99.90;;;;;;5010286;28;20197;-72
2022/10/09 04:23:25;;;;;;;0.93;0.83;;;13.60;99.90;;;;;;5008796;28;20215;-72
2022/10/09 04:25:54;;;;;;;1.83;0.80;;;13.70;99.90;;;;;;5010347;28;20201;-72
2022/10/09 04:28:22;;;;;;;1.63;0.70;;;13.70;99.90;;;;;;5010149;28;20549;-72
2022/10/09 04:30:49;;;;;;;1.07;0.97;;;13.60;99.90;;;;;;5009059;28;20208;-72
2022/10/09 04:33:17;;;;;;;0.70;0.70;;;13.70;99.90;;;;;;5008940;28;20210;-73
2022/10/09 04:35:46;;;;;;;4.00;0.80;;;13.70;99.90;;;;;;5008319;28;20208;-73
2022/10/09 04:38:13;;;;;;;0.60;0.60;;;13.60;99.90;;;;;;5009930;28;20224;-73
2022/10/09 04:40:41;;;;;;;0.93;0.67;;;13.60;99.90;;;;;;5009193;28;20204;-73
2022/10/09 04:43:08;;;;;;;1.20;0.70;;;13.60;99.90;;;;;;5008450;28;20193;-73
2022/10/09 04:45:39;;;;;;;0.80;0.80;;;13.60;99.90;;;;;;5009749;28;20202;-73
2022/10/09 04:48:07;;;;;;;2.10;0.90;;;13.60;99.90;;;;;;5005875;28;20193;-73
2022/10/09 04:50:38;;;;;;;1.97;1.00;;;13.60;99.90;;;;;;5010427;28;20632;-73
2022/10/09 04:53:05;;;;;;;0.60;0.60;;;13.60;99.90;;;;;;5006350;28;20688;-73
2022/10/09 04:55:33;;;;;;;0.90;0.70;;;13.60;99.90;;;;;;5010214;28;20619;-73
2022/10/09 04:58:00;;;;;;;1.63;0.90;;;13.60;99.90;;;;;;5008563;28;20222;-72
2022/10/09 05:00:27;;;;;;;0.97;0.70;;;13.60;99.90;;;;;;5009483;28;20198;-72
2022/10/09 05:02:54;;;;;;;0.63;0.60;;;13.60;99.90;;;;;;5008752;28;20208;-73
2022/10/09 05:05:21;;;;;;;1.43;0.70;;;13.60;99.90;;;;;;5007556;28;20703;-72
2022/10/09 05:07:50;;;;;;;0.77;0.70;;;13.60;99.90;;;;;;5009379;28;20190;-73
2022/10/09 05:10:17;;;;;;;0.80;0.80;;;13.70;99.90;;;;;;5009592;28;20191;-72
2022/10/09 05:12:44;;;;;;;0.77;0.60;;;13.70;99.90;;;;;;5009611;28;20565;-72
2022/10/09 05:15:12;;;;;;;4.47;1.00;;;13.70;99.90;;;;;;5007673;28;20213;-73
2022/10/09 05:17:39;;;;;;;1.10;0.77;;;13.70;99.90;;;;;;5009990;28;20573;-73
2022/10/09 05:20:07;;;;;;;1.07;0.73;;;13.70;99.90;;;;;;5007904;28;20209;-72
2022/10/09 05:22:34;;;;;;;2.93;0.93;;;13.70;99.90;;;;;;5009921;28;20212;-73
2022/10/09 05:25:03;;;;;;;0.73;0.73;;;13.70;99.90;;;;;;5007908;28;20239;-73
2022/10/09 05:27:30;;;;;;;0.70;0.70;;;13.70;99.90;;;;;;5008455;28;20184;-73
2022/10/09 05:29:57;;;;;;;2.13;1.00;;;13.70;99.90;;;;;;5008277;28;20226;-74
2022/10/09 05:32:24;;;;;;;0.60;0.60;;;13.70;99.90;;;;;;5006537;28;20295;-73
2022/10/09 05:34:51;;;;;;;0.73;0.70;;;13.70;99.90;;;;;;5008115;28;20204;-72
2022/10/09 05:37:19;;;;;;;0.50;0.50;;;13.80;99.90;;;;;;5008909;28;20215;-72
2022/10/09 05:39:46;;;;;;;0.93;0.50;;;13.70;99.90;;;;;;5005690;28;20281;-72
2022/10/09 05:42:15;;;;;;;0.70;0.60;;;13.70;99.90;;;;;;5004822;28;20701;-71
2022/10/09 05:44:42;;;;;;;1.90;0.60;;;13.80;99.90;;;;;;5007632;28;20201;-72
2022/10/09 05:47:09;;;;;;;0.70;0.70;;;13.70;99.90;;;;;;5008776;28;20654;-72
2022/10/09 05:49:36;;;;;;;0.40;0.40;;;13.80;99.90;;;;;;5008246;28;20206;-72
2022/10/09 05:52:03;;;;;;;0.70;0.50;;;13.80;99.90;;;;;;5006882;28;20206;-71
2022/10/09 05:54:30;;;;;;;0.63;0.63;;;13.80;99.90;;;;;;5008731;28;20194;-74
2022/10/09 05:56:57;;;;;;;1.47;1.00;;;13.80;99.90;;;;;;5009069;28;20188;-72
2022/10/09 05:59:26;;;;;;;0.50;0.50;;;13.80;99.90;;;;;;5008151;28;20711;-71
2022/10/09 06:01:53;;;;;;;0.77;0.70;;;13.90;99.90;;;;;;5007149;28;20630;-72
2022/10/09 06:04:22;;;;;;;0.50;0.50;;;13.90;99.90;;;;;;5007441;28;20276;-71
2022/10/09 06:06:50;;;;;;;1.83;1.00;;;13.80;99.90;;;;;;5006305;28;20209;-72
2022/10/09 06:09:18;;;;;;;1.00;0.70;;;13.80;99.90;;;;;;5008764;28;20202;-73
2022/10/09 06:11:46;;;;;;;1.90;0.90;;;13.80;99.90;;;;;;5007715;28;20194;-73
2022/10/09 06:14:13;;;;;;;1.23;0.80;;;13.80;99.90;;;;;;5006483;28;20282;-73
2022/10/09 06:16:43;;;;;;;0.70;0.70;;;13.80;99.90;;;;;;5008669;28;20198;-73
2022/10/09 06:19:12;;;;;;;0.50;0.50;;;13.80;99.90;;;;;;5007561;28;20221;-73
2022/10/09 06:21:39;;;;;;;1.33;0.60;;;13.90;99.90;;;;;;5007608;28;20209;-73
2022/10/09 06:24:07;;;;;;;2.53;0.83;;;13.90;99.90;;;;;;5008844;28;20190;-73
2022/10/09 06:26:35;;;;;;;1.33;1.13;;;13.90;99.90;;;;;;5008711;28;20202;-73
2022/10/09 06:29:02;;;;;;;1.60;1.00;;;13.90;99.90;;;;;;5007331;28;20198;-73
2022/10/09 06:31:31;;;;;;;1.90;1.20;;;13.90;99.90;;;;;;5007869;28;20198;-73
2022/10/09 06:34:02;;;;;;;2.40;1.10;;;13.90;99.90;;;;;;5008953;28;20698;-73
2022/10/09 06:36:31;;;;;;;0.83;0.70;;;13.90;99.90;;;;;;5006598;28;20569;-74
2022/10/09 06:38:59;;;;;;;2.70;1.00;;;14.00;99.90;;;;;;5007689;28;20689;-74
2022/10/09 06:41:28;;;;;;;1.13;0.93;;;14.00;99.90;;;;;;5007557;28;20202;-74
2022/10/09 06:43:56;;;;;;;0.97;0.70;;;14.00;99.90;;;;;;5006700;28;20208;-73
2022/10/09 06:46:26;;;;;;;2.07;1.00;;;14.00;99.90;;;;;;5007562;28;20193;-74
2022/10/09 06:48:53;;;;;;;2.10;1.20;;;14.10;99.90;;;;;;5007922;28;20571;-73
2022/10/09 06:51:23;;;;;;;6.17;1.10;;;14.20;99.90;;;;;;5005497;28;20198;-73
2022/10/09 06:53:52;;;;;;;1.10;0.93;;;14.20;99.90;;;;;;5006153;28;20191;-74
2022/10/09 06:56:21;;;;;;;1.73;0.70;;;14.20;99.90;;;;;;5008203;28;20218;-73
2022/10/09 06:58:49;;;;;;;1.90;0.83;;;14.20;99.90;;;;;;5008793;28;20219;-74
2022/10/09 07:01:17;;;;;;;1.63;0.80;;;14.20;99.90;;;;;;5006475;28;20669;-73
2022/10/09 07:03:46;;;;;;;0.70;0.70;;;14.30;99.90;;;;;;5007658;28;20253;-73
2022/10/09 07:06:15;;;;;;;2.30;0.80;;;14.30;99.90;;;;;;5006048;28;20237;-74
2022/10/09 07:08:45;;;;;;;2.13;0.80;;;14.30;99.90;;;;;;5007128;28;20593;-73
2022/10/09 07:11:15;;;;;;;2.33;0.93;;;14.30;99.90;;;;;;5010255;28;20205;-73
2022/10/09 07:13:43;;;;;;;0.70;0.70;;;14.30;99.90;;;;;;5010061;28;20202;-73
2022/10/09 07:16:11;;;;;;;0.80;0.80;;;14.30;99.90;;;;;;5010130;28;20233;-74
2022/10/09 07:18:38;;;;;;;1.50;0.70;;;14.40;99.90;;;;;;5011227;28;20218;-73
2022/10/09 07:21:08;;;;;;;1.53;0.80;;;14.40;99.90;;;;;;5009187;28;20209;-73
2022/10/09 07:23:36;;;;;;;1.63;0.70;;;14.40;99.90;;;;;;5010625;28;20694;-73
2022/10/09 07:26:10;;;;;;;2.17;0.80;;;14.50;99.90;;;;;;5011250;28;20542;-73
2022/10/09 07:28:38;;;;;;;0.77;0.47;;;14.50;99.90;;;;;;5008547;28;20194;-74
2022/10/09 07:31:05;;;;;;;0.70;0.70;;;14.50;99.90;;;;;;5010389;28;20209;-73
2022/10/09 07:33:33;;;;;;;1.30;0.70;;;14.50;99.90;;;;;;5011767;28;20273;-73
2022/10/09 07:36:02;;;;;;;1.27;0.80;;;14.60;99.90;;;;;;5010267;28;20680;-72
2022/10/09 07:38:30;;;;;;;3.57;0.83;;;14.60;99.90;;;;;;5007908;28;20226;-72
2022/10/09 07:41:00;;;;;;;1.73;1.00;;;14.70;99.90;;;;;;5009738;28;20199;-72
2022/10/09 07:43:30;;;;;;;0.80;0.70;;;14.70;99.90;;;;;;5009096;28;20253;-72
2022/10/09 07:46:00;;;;;;;1.03;0.90;;;14.70;99.90;;;;;;5011526;28;20551;-72
2022/10/09 07:48:28;;;;;;;0.73;0.70;;;14.80;99.90;;;;;;5010083;28;20187;-72
2022/10/09 07:50:55;;;;;;;1.77;0.70;;;14.80;99.90;;;;;;5009796;28;20207;-72
2022/10/09 07:53:23;;;;;;;0.70;0.70;;;14.90;99.90;;;;;;5010729;28;20199;-71
2022/10/09 07:55:50;;;;;;;1.00;0.60;;;15.00;99.90;;;;;;5011673;28;20691;-72
2022/10/09 07:58:18;;;;;;;0.60;0.60;;;15.00;99.90;;;;;;5010822;28;20713;-72
2022/10/09 08:00:47;;;;;;;0.97;0.60;;;15.00;99.90;;;;;;5011367;28;20242;-73
2022/10/09 08:03:14;;;;;;;1.03;0.80;;;15.10;99.90;;;;;;5009437;28;20210;-72
2022/10/09 08:05:41;;;;;;;3.33;0.90;;;15.10;99.90;;;;;;5009508;28;20235;-73
2022/10/09 08:08:08;;;;;;;1.67;0.90;;;15.20;99.90;;;;;;5009465;28;20194;-73
2022/10/09 08:10:35;;;;;;;1.77;0.70;;;15.20;99.90;;;;;;5012031;28;20668;-72
2022/10/09 08:13:02;;;;;;;2.50;0.93;;;15.10;99.90;;;;;;5010529;28;20680;-73
2022/10/09 08:15:30;;;;;;;2.33;0.67;;;15.20;99.90;;;;;;5008503;28;20206;-73
2022/10/09 08:17:58;;;;;;;2.23;0.63;;;15.20;99.90;;;;;;5009782;28;20690;-72
2022/10/09 08:20:25;;;;;;;1.47;0.80;;;15.20;99.90;;;;;;5009219;28;20281;-73
2022/10/09 08:22:52;;;;;;;1.10;0.60;;;15.30;99.90;;;;;;5007641;28;20757;-72
2022/10/09 08:25:20;;;;;;;0.67;0.50;;;15.30;99.90;;;;;;5008867;28;20202;-72
2022/10/09 08:27:47;;;;;;;0.60;0.50;;;15.30;99.90;;;;;;5011126;28;20205;-72
2022/10/09 08:30:14;;;;;;;1.80;0.83;;;15.30;99.90;;;;;;5008259;28;20195;-72
2022/10/09 08:32:41;;;;;;;1.13;0.60;;;15.30;99.90;;;;;;5009542;28;20269;-72
2022/10/09 08:35:10;;;;;;;1.00;0.70;;;15.30;99.90;;;;;;5007810;28;20664;-73
2022/10/09 08:37:37;;;;;;;2.07;0.80;;;15.30;99.90;;;;;;5011031;28;20587;-73
2022/10/09 08:40:05;;;;;;;0.93;0.43;;;15.40;99.90;;;;;;5008260;28;20219;-73
2022/10/09 08:42:41;;;;;;;1.30;0.60;;;15.40;99.90;;;;;;5006285;28;20211;-73
2022/10/09 08:45:19;;;;;;;0.60;0.50;;;15.40;99.80;;;;;;4998199;28;20195;-73
2022/10/09 08:47:50;;;;;;;3.20;0.90;;;15.50;99.80;;;;;;5006670;28;20203;-73
2022/10/09 08:50:26;;;;;;;2.20;0.70;;;15.50;99.60;;;;;;5009381;28;20350;-74
2022/10/09 08:52:58;;;;;;;1.67;0.70;;;15.50;99.50;;;;;;5004707;28;20199;-73
2022/10/09 08:55:28;;;;;;;2.10;1.00;;;15.00;99.10;;;;;;5000467;28;20187;-74
2022/10/09 08:57:57;;;;;;;1.50;0.60;;;15.50;99.20;;;;;;5007979;28;20219;-72
2022/10/09 09:00:44;;;;;;;0.57;0.40;;;15.50;99.10;;;;;;5005676;28;20222;-74
2022/10/09 09:03:32;;;;;;;2.43;0.80;;;15.60;99.10;;;;;;5009455;28;20194;-72
2022/10/09 09:06:08;;;;;;;0.87;0.70;;;15.60;99.00;;;;;;5001227;28;20246;-72
2022/10/09 09:08:45;;;;;;;1.77;0.60;;;15.60;98.80;;;;;;5008296;28;20781;-72
2022/10/09 09:11:22;;;;;;;0.53;0.50;;;15.60;98.70;;;;;;5004972;28;20718;-72
2022/10/09 09:14:11;;;;;;;1.17;0.50;;;15.60;98.70;;;;;;5008794;28;20586;-73
2022/10/09 09:16:45;;;;;;;0.50;0.50;;;15.60;98.60;;;;;;5005414;28;20651;-73
2022/10/09 09:19:46;;;;;;;1.03;0.60;;;15.70;98.50;;;;;;5008119;28;20207;-73
2022/10/09 09:22:16;;;;;;;1.27;0.77;;;15.70;98.50;;;;;;5006575;28;20195;-72
2022/10/09 09:24:47;;;;;;;0.60;0.57;;;15.70;98.10;;;;;;5008458;28;20623;-75
2022/10/09 09:27:18;;;;;;;0.87;0.87;;;15.80;98.10;;;;;;5007925;28;20195;-72
2022/10/09 09:29:52;;;;;;;1.93;0.70;;;15.80;98.10;;;;;;5004747;28;20196;-72
2022/10/09 09:32:22;;;;;;;1.10;0.80;;;15.80;98.00;;;;;;5003130;28;20278;-72
2022/10/09 09:34:52;;;;;;;0.43;0.43;;;15.90;97.90;;;;;;5015536;28;20219;-76
2022/10/09 09:37:21;;;;;;;1.50;0.63;;;15.90;97.70;;;;;;5005849;28;20195;-75
2022/10/09 09:39:48;;;;;;;1.80;0.83;;;16.00;97.60;;;;;;5004076;28;20215;-73
2022/10/09 09:42:18;;;;;;;0.60;0.60;;;16.00;97.40;;;;;;5003319;28;20221;-75
2022/10/09 09:44:56;;;;;;;0.83;0.70;;;16.20;97.50;;;;;;5004985;28;20200;-72
2022/10/09 09:47:28;;;;;;;0.60;0.60;;;16.10;97.30;;;;;;5002954;28;20201;-72
2022/10/09 09:49:57;;;;;;;0.50;0.50;;;16.20;97.20;;;;;;5001345;28;20191;-73
2022/10/09 09:52:29;;;;;;;2.57;0.47;;;16.30;97.10;;;;;;5003747;28;20205;-72
2022/10/09 09:54:58;;;;;;;0.90;0.50;;;16.50;96.80;;;;;;5007860;28;20203;-71
2022/10/09 09:57:34;;;;;;;1.50;0.60;;;16.80;96.50;;;;;;5006493;28;20195;-73
2022/10/09 10:00:20;;;;;;;2.40;0.60;;;17.60;96.20;;;;;;5004292;28;20220;-73
2022/10/09 10:03:01;;;;;;;0.85;0.60;;;19.50;94.20;;;;;;5004002;28;20202;-73
2022/10/09 10:05:28;;;;;;;1.63;0.80;;;21.40;91.60;;;;;;5002748;28;20227;-72
2022/10/09 10:07:57;;;;;;;2.05;0.82;;;23.10;89.20;;;;;;5005980;28;20224;-72
2022/10/09 10:10:26;;;;;;;0.65;0.60;;;24.40;83.30;;;;;;5007380;28;20198;-73
2022/10/09 10:12:56;;;;;;;0.90;0.90;;;25.60;76.20;;;;;;5007032;28;20187;-72
2022/10/09 10:15:26;;;;;;;0.60;0.60;;;26.50;71.20;;;;;;5006810;28;20195;-72
2022/10/09 10:18:00;;;;;;;0.60;0.60;;;27.30;67.10;;;;;;5006754;28;20644;-73
2022/10/09 10:20:28;;;;;;;1.30;0.68;;;27.00;63.80;;;;;;5008090;28;20294;-72
2022/10/09 10:22:58;;;;;;;1.98;0.73;;;27.30;63.00;;;;;;5008705;28;20630;-72
2022/10/09 10:25:31;;;;;;;1.00;0.70;;;27.80;60.00;;;;;;5008823;28;20222;-73
2022/10/09 10:28:03;;;;;;;0.70;0.57;;;28.00;59.20;;;;;;5008611;28;20282;-71
2022/10/09 10:30:31;;;;;;;0.55;0.55;;;27.60;58.50;;;;;;5008210;28;20187;-72
2022/10/09 10:33:03;;;;;;;1.52;0.80;;;27.20;59.10;;;;;;5007239;28;20290;-71
2022/10/09 10:35:35;;;;;;;1.20;0.80;;;26.20;59.50;;;;;;5006975;28;20207;-71
2022/10/09 10:38:12;;;;;;;1.23;0.85;;;25.20;60.90;;;;;;5008273;28;20282;-73
2022/10/09 10:40:43;;;;;;;0.90;0.80;;;24.30;61.30;;;;;;5006181;28;20694;-72
2022/10/09 10:43:31;;;;;;;0.80;0.80;;;23.50;62.10;;;;;;5007647;28;20733;-73
2022/10/09 10:46:11;;;;;;;0.68;0.68;;;22.80;62.50;;;;;;5010148;28;20195;-72
2022/10/09 10:48:41;;;;;;;3.72;0.95;;;22.20;62.60;;;;;;5011918;28;20191;-72
2022/10/09 10:51:27;;;;;;;1.83;1.20;;;21.60;63.40;;;;;;5009936;28;20282;-72
2022/10/09 10:54:07;;;;;;;1.00;0.70;;;21.20;64.20;;;;;;4999427;28;20206;-72
2022/10/09 10:56:38;;;;;;;1.13;0.75;;;20.80;65.10;;;;;;5010041;28;20230;-72
2022/10/09 10:59:29;;;;;;;1.42;0.90;;;20.40;65.60;;;;;;5010636;28;20200;-71
2022/10/09 11:02:25;;;;;;;1.10;1.00;;;20.20;66.10;;;;;;5010661;28;20200;-72
2022/10/09 11:04:57;;;;;;;0.70;0.65;;;20.00;66.70;;;;;;5012211;28;20234;-72
2022/10/09 11:07:33;;;;;;;0.73;0.73;;;19.70;67.30;;;;;;5009746;28;20184;-72
2022/10/09 11:10:11;;;;;;;0.60;0.60;;;19.50;67.70;;;;;;5009909;28;20195;-72
2022/10/09 11:12:46;;;;;;;0.77;0.60;;;19.40;68.10;;;;;;5009629;28;20544;-72
2022/10/09 11:15:21;;;;;;;1.02;0.73;;;19.30;68.20;;;;;;5011215;28;20333;-72
2022/10/09 11:17:59;;;;;;;0.65;0.65;;;19.20;68.40;;;;;;5011106;28;20201;-72
2022/10/09 11:20:52;;;;;;;0.60;0.60;;;19.10;68.60;;;;;;5009906;28;20218;-72
2022/10/09 11:23:26;;;;;;;1.00;0.90;;;19.00;68.80;;;;;;5010430;28;20191;-71
2022/10/09 11:26:06;;;;;;;2.60;0.90;;;18.90;69.10;;;;;;5011685;28;20199;-73
2022/10/09 11:28:40;;;;;;;1.58;0.80;;;18.90;69.40;;;;;;5011256;28;20195;-72
2022/10/09 11:31:14;;;;;;;1.35;0.80;;;18.80;69.40;;;;;;5011832;28;20199;-72
2022/10/09 11:33:45;;;;;;;1.60;0.80;;;18.70;69.40;;;;;;5009804;28;21093;-71
2022/10/09 11:36:18;;;;;;;2.78;1.00;;;18.70;69.80;;;;;;5008001;28;20191;-72
2022/10/09 11:38:48;;;;;;;0.60;0.60;;;18.60;70.10;;;;;;4997558;28;20192;-72
2022/10/09 11:41:18;;;;;;;1.33;0.73;;;18.60;70.50;;;;;;5009105;28;20188;-72
2022/10/09 11:44:04;;;;;;;0.73;0.70;;;18.50;70.70;;;;;;5007997;28;20199;-72
2022/10/09 11:46:41;;;;;;;0.63;0.50;;;18.40;70.70;;;;;;5023980;28;20257;-72
2022/10/09 11:49:20;;;;;;;1.15;0.85;;;18.30;70.90;;;;;;5008547;28;20230;-72
2022/10/09 11:51:55;;;;;;;1.25;0.60;;;18.30;71.00;;;;;;5008166;28;20642;-71
2022/10/09 11:54:24;;;;;;;0.63;0.63;;;18.30;71.00;;;;;;5008366;28;20280;-72
2022/10/09 11:56:58;;;;;;;2.70;0.60;;;18.20;71.60;;;;;;5006592;28;20195;-73
2022/10/09 11:59:29;;;;;;;1.98;0.70;;;18.20;70.90;;;;;;5008909;28;20218;-72
2022/10/09 12:01:58;;;;;;;0.60;0.60;;;18.20;70.70;;;;;;5008900;28;20203;-71
2022/10/09 12:04:30;;;;;;;0.50;0.50;;;18.20;70.70;;;;;;5010637;28;20242;-72
2022/10/09 12:07:00;;;;;;;0.70;0.70;;;18.10;70.70;;;;;;5009160;28;20207;-73
2022/10/09 12:09:31;;;;;;;0.60;0.60;;;18.20;70.90;;;;;;5009323;28;20552;-72
2022/10/09 12:12:02;;;;;;;1.00;0.68;;;18.10;71.00;;;;;;5007379;28;20199;-72
2022/10/09 12:14:31;;;;;;;0.50;0.50;;;18.10;70.90;;;;;;5010089;28;20836;-72
2022/10/09 12:16:59;;;;;;;0.60;0.60;;;18.20;71.00;;;;;;5008489;28;20195;-72
2022/10/09 12:19:30;;;;;;;1.58;0.80;;;18.20;71.00;;;;;;5010163;28;20698;-72
2022/10/09 12:22:04;;;;;;;0.85;0.63;;;18.20;71.00;;;;;;5008148;28;20195;-72
2022/10/09 12:24:39;;;;;;;1.13;0.73;;;18.20;71.00;;;;;;5008113;28;20721;-71
2022/10/09 12:27:13;;;;;;;1.40;0.90;;;18.30;71.10;;;;;;5010287;28;21128;-72
2022/10/09 12:29:45;;;;;;;0.80;0.80;;;18.80;71.20;;;;;;5010327;28;20183;-72
2022/10/09 12:32:18;;;;;;;1.10;0.70;;;20.30;70.10;;;;;;5008478;28;20214;-72
2022/10/09 12:34:48;;;;;;;0.93;0.93;;;21.50;68.00;;;;;;5010477;28;20191;-72
2022/10/09 12:37:18;;;;;;;0.80;0.80;;;21.80;65.90;;;;;;5008562;28;20217;-72
2022/10/09 12:39:46;;;;;;;0.80;0.60;;;21.80;65.20;;;;;;5010213;28;20211;-73
2022/10/09 12:42:20;;;;;;;1.50;0.95;;;21.40;65.00;;;;;;5009266;28;20282;-72
2022/10/09 12:44:49;;;;;;;3.10;1.05;;;20.90;65.20;;;;;;5007289;28;20196;-72
2022/10/09 12:47:21;;;;;;;0.70;0.70;;;20.60;66.00;;;;;;5009550;28;20195;-72
2022/10/09 12:50:00;;;;;;;0.90;0.90;;;21.00;65.90;;;;;;5009536;28;20246;-73
2022/10/09 12:52:28;;;;;;;1.02;0.98;;;22.40;64.80;;;;;;5010798;28;20249;-72
2022/10/09 12:54:56;;;;;;;1.17;0.75;;;23.90;61.60;;;;;;5008230;28;20191;-72
2022/10/09 12:57:26;;;;;;;1.90;0.75;;;24.90;59.10;;;;;;5010838;28;20191;-72
2022/10/09 12:59:53;;;;;;;1.90;0.75;;;25.50;57.40;;;;;;5008625;28;20219;-73
2022/10/09 13:02:21;;;;;;;0.60;0.60;;;26.20;57.00;;;;;;5010386;28;20194;-73
2022/10/09 13:05:00;;;;;;;0.73;0.73;;;26.90;54.90;;;;;;5010057;28;20231;-73